createdAt,value
2022-12-23T00:00:34.863Z,91.24
2022-12-23T00:03:22.556Z,89.90
2022-12-23T00:06:10.209Z,88.01
2022-12-23T00:08:57.769Z,87.16
2022-12-23T00:11:45.338Z,89.45
2022-12-23T00:14:32.926Z,94.18
2022-12-23T00:17:22.974Z,94.42
2022-12-23T00:20:10.966Z,90.20
2022-12-23T00:22:58.544Z,92.14
2022-12-23T00:25:46.119Z,91.94
2022-12-23T00:28:33.672Z,93.56
2022-12-23T00:31:21.418Z,92.93
2022-12-23T00:34:09.069Z,89.04
2022-12-23T00:36:56.673Z,86.97
2022-12-23T00:39:44.256Z,87.62
2022-12-23T00:42:32.683Z,91.93
2022-12-23T00:45:20.257Z,92.55
2022-12-23T00:48:07.785Z,90.23
2022-12-23T00:50:55.340Z,88.16
2022-12-23T00:53:42.891Z,88.29
2022-12-23T00:56:30.462Z,90.08
2022-12-23T00:59:18.057Z,86.61
2022-12-23T01:02:05.876Z,83.89
2022-12-23T01:04:53.728Z,83.26
2022-12-23T01:07:41.341Z,84.34
2022-12-23T01:10:28.917Z,84.31
2022-12-23T01:13:16.493Z,85.03
2022-12-23T01:16:04.085Z,84.34
2022-12-23T01:18:51.664Z,84.65
2022-12-23T01:21:39.244Z,83.31
2022-12-23T01:24:26.822Z,82.31
2022-12-23T01:27:16.394Z,83.40
2022-12-23T01:30:03.940Z,82.92
2022-12-23T01:32:51.510Z,85.67
2022-12-23T01:35:39.189Z,84.12
2022-12-23T01:38:26.773Z,85.29
2022-12-23T01:41:14.358Z,86.38
2022-12-23T01:44:01.955Z,82.86
2022-12-23T01:46:49.567Z,87.10
2022-12-23T01:49:37.132Z,88.83
2022-12-23T01:52:24.871Z,90.21
2022-12-23T01:55:12.502Z,89.85
2022-12-23T01:58:00.152Z,91.70
2022-12-23T02:00:47.746Z,89.54
2022-12-23T02:03:35.386Z,90.29
2022-12-23T02:06:22.995Z,90.18
2022-12-23T02:09:10.629Z,87.07
2022-12-23T02:11:58.193Z,89.95
2022-12-23T02:14:45.779Z,90.69
2022-12-23T02:17:33.349Z,90.29
2022-12-23T02:20:20.926Z,88.36
2022-12-23T02:23:08.486Z,90.38
2022-12-23T02:25:56.050Z,85.25
2022-12-23T02:28:43.631Z,89.05
2022-12-23T02:31:31.259Z,87.45
2022-12-23T02:34:18.900Z,88.91
2022-12-23T02:37:06.476Z,88.57
2022-12-23T02:39:54.068Z,85.60
2022-12-23T02:42:41.641Z,85.63
2022-12-23T02:45:29.206Z,84.05
2022-12-23T02:48:16.833Z,81.46
2022-12-23T02:51:04.429Z,82.34
2022-12-23T02:53:52.113Z,82.80
2022-12-23T02:56:39.672Z,83.75
2022-12-23T02:59:27.262Z,83.59
2022-12-23T03:02:14.900Z,83.71
2022-12-23T03:05:02.635Z,83.76
2022-12-23T03:07:50.236Z,85.39
2022-12-23T03:10:37.798Z,86.22
2022-12-23T03:13:25.383Z,88.90
2022-12-23T03:16:13.154Z,90.04
2022-12-23T03:19:02.749Z,86.21
2022-12-23T03:21:50.331Z,86.99
2022-12-23T03:24:37.893Z,85.62
2022-12-23T03:27:25.457Z,85.15
2022-12-23T03:30:12.989Z,87.03
2022-12-23T03:33:02.543Z,86.62
2022-12-23T03:35:50.100Z,83.18
2022-12-23T03:38:37.619Z,80.29
2022-12-23T03:41:25.160Z,81.39
2022-12-23T03:44:12.784Z,81.62
2022-12-23T03:47:00.348Z,82.20
2022-12-23T03:49:47.949Z,81.30
2022-12-23T03:52:35.522Z,80.83
2022-12-23T03:55:23.115Z,80.55
2022-12-23T03:58:10.681Z,80.57
2022-12-23T04:00:58.986Z,80.35
2022-12-23T04:03:46.642Z,78.40
2022-12-23T04:06:34.223Z,77.75
2022-12-23T04:09:22.526Z,76.45
2022-12-23T04:12:10.289Z,74.58
2022-12-23T04:15:16.177Z,76.74
2022-12-23T04:18:05.023Z,79.46
2022-12-23T04:21:05.046Z,81.29
2022-12-23T04:23:52.625Z,83.30
2022-12-23T04:26:40.217Z,81.51
2022-12-23T04:29:27.814Z,83.21
2022-12-23T04:32:15.381Z,81.55
2022-12-23T04:35:02.989Z,82.56
2022-12-23T04:37:50.550Z,80.31
2022-12-23T04:40:38.153Z,82.64
2022-12-23T04:43:25.704Z,81.03
2022-12-23T04:46:13.356Z,77.79
2022-12-23T04:49:00.945Z,79.51
2022-12-23T04:51:48.603Z,78.64
2022-12-23T04:54:40.521Z,77.77
2022-12-23T04:57:31.607Z,78.70
2022-12-23T05:00:19.196Z,78.61
2022-12-23T05:03:06.986Z,78.36
2022-12-23T05:05:54.618Z,79.07
2022-12-23T05:08:42.193Z,80.20
2022-12-23T05:11:29.760Z,81.00
2022-12-23T05:14:17.345Z,78.96
2022-12-23T05:17:07.772Z,79.15
2022-12-23T05:19:55.697Z,77.50
2022-12-23T05:22:43.264Z,77.98
2022-12-23T05:25:30.813Z,79.73
2022-12-23T05:28:18.381Z,79.40
2022-12-23T05:31:06.004Z,76.02
2022-12-23T05:33:53.637Z,75.78
2022-12-23T05:36:41.295Z,80.18
2022-12-23T05:39:28.857Z,78.19
2022-12-23T05:42:16.460Z,80.26
2022-12-23T05:45:04.019Z,83.71
2022-12-23T05:47:51.585Z,80.53
2022-12-23T05:50:39.651Z,80.07
2022-12-23T05:53:27.254Z,79.03
2022-12-23T05:56:14.832Z,80.44
2022-12-23T05:59:02.499Z,79.66
2022-12-23T06:01:52.143Z,80.23
2022-12-23T06:04:39.758Z,81.09
2022-12-23T06:07:27.308Z,82.31
2022-12-23T06:10:14.888Z,79.21
2022-12-23T06:13:02.466Z,81.93
2022-12-23T06:15:50.055Z,81.73
2022-12-23T06:18:37.612Z,81.63
2022-12-23T06:21:25.151Z,84.47
2022-12-23T06:24:12.714Z,84.53
2022-12-23T06:27:00.293Z,85.36
2022-12-23T06:29:47.971Z,87.00
2022-12-23T06:32:38.654Z,84.19
2022-12-23T06:35:26.615Z,83.43
2022-12-23T06:38:14.175Z,84.87
2022-12-23T06:41:01.801Z,83.81
2022-12-23T06:43:54.037Z,82.49
2022-12-23T06:46:41.769Z,83.71
2022-12-23T06:49:29.335Z,80.77
2022-12-23T06:52:16.909Z,79.11
2022-12-23T06:55:04.508Z,79.27
2022-12-23T06:57:52.099Z,77.99
2022-12-23T07:00:39.667Z,77.58
2022-12-23T07:03:27.249Z,78.44
2022-12-23T07:06:14.811Z,81.92
2022-12-23T07:09:02.398Z,81.00
2022-12-23T07:11:49.930Z,82.02
2022-12-23T07:14:37.511Z,82.45
2022-12-23T07:17:25.073Z,79.16
2022-12-23T07:20:12.640Z,79.61
2022-12-23T07:23:00.197Z,81.91
2022-12-23T07:25:47.805Z,80.92
2022-12-23T07:28:35.425Z,78.89
2022-12-23T07:31:23.088Z,79.43
2022-12-23T07:34:10.724Z,78.62
2022-12-23T07:36:58.305Z,80.37
2022-12-23T07:39:45.863Z,78.68
2022-12-23T07:42:44.814Z,78.00
2022-12-23T07:45:33.959Z,78.77
2022-12-23T07:48:21.539Z,79.48
2022-12-23T07:51:09.106Z,80.29
2022-12-23T07:53:56.693Z,80.30
2022-12-23T07:56:44.266Z,84.04
2022-12-23T07:59:31.856Z,82.38
2022-12-23T08:02:19.660Z,84.86
2022-12-23T08:05:07.453Z,82.30
2022-12-23T08:07:55.031Z,82.93
2022-12-23T08:10:48.007Z,84.14
2022-12-23T08:13:36.173Z,86.81
2022-12-23T08:16:23.835Z,88.09
2022-12-23T08:19:11.453Z,87.14
2022-12-23T08:21:59.087Z,87.54
2022-12-23T08:24:46.669Z,87.70
2022-12-23T08:27:34.241Z,90.84
2022-12-23T08:30:21.839Z,87.56
2022-12-23T08:33:18.445Z,87.55
2022-12-23T08:36:06.028Z,89.03
2022-12-23T08:38:53.621Z,86.09
2022-12-23T08:41:41.198Z,85.88
2022-12-23T08:44:28.796Z,87.45
2022-12-23T08:47:16.352Z,89.03
2022-12-23T08:50:03.965Z,90.55
2022-12-23T08:52:51.549Z,90.84
2022-12-23T08:55:39.814Z,87.79
2022-12-23T08:58:27.399Z,88.57
2022-12-23T09:01:15.034Z,88.96
2022-12-23T09:04:02.662Z,89.59
2022-12-23T09:06:50.337Z,92.34
2022-12-23T09:09:37.871Z,88.84
2022-12-23T09:12:25.433Z,88.64
2022-12-23T09:15:13.220Z,88.48
2022-12-23T09:18:00.869Z,86.84
2022-12-23T09:20:48.447Z,86.39
2022-12-23T09:23:36.016Z,86.43
2022-12-23T09:26:23.583Z,87.74
2022-12-23T09:29:11.199Z,87.02
2022-12-23T09:31:58.771Z,90.58
2022-12-23T09:34:46.428Z,90.95
2022-12-23T09:37:33.989Z,91.61
2022-12-23T09:40:21.608Z,91.98
2022-12-23T09:43:09.161Z,93.93
2022-12-23T09:45:56.770Z,92.14
2022-12-23T09:48:44.401Z,91.04
2022-12-23T09:51:31.993Z,90.58
2022-12-23T09:54:19.565Z,88.79
2022-12-23T09:57:07.141Z,91.75
2022-12-23T09:59:54.726Z,92.05
2022-12-23T10:02:42.541Z,92.44
2022-12-23T10:05:30.186Z,92.38
2022-12-23T10:08:17.794Z,91.32
2022-12-23T10:11:05.346Z,90.14
2022-12-23T10:13:52.917Z,89.87
2022-12-23T10:16:40.640Z,90.40
2022-12-23T10:19:28.302Z,86.29
2022-12-23T10:22:15.877Z,87.19
2022-12-23T10:25:05.661Z,83.39
2022-12-23T10:27:53.222Z,84.95
2022-12-23T10:33:48.344Z,83.70
2022-12-23T10:36:35.999Z,82.46
2022-12-23T10:39:24.286Z,81.44
2022-12-23T10:42:11.861Z,82.05
2022-12-23T10:44:59.469Z,83.12
2022-12-23T10:47:47.181Z,84.19
2022-12-23T10:50:37.593Z,83.80
2022-12-23T10:53:25.222Z,85.81
2022-12-23T10:56:12.796Z,84.08
2022-12-23T10:59:00.415Z,83.00
2022-12-23T11:01:48.176Z,84.25
2022-12-23T11:04:36.023Z,82.32
2022-12-23T11:07:44.283Z,84.28
2022-12-23T11:10:32.054Z,83.49
2022-12-23T11:13:19.653Z,86.73
2022-12-23T11:16:07.280Z,89.73
2022-12-23T11:18:55.038Z,90.32
2022-12-23T11:21:42.612Z,89.75
2022-12-23T11:24:30.231Z,88.52
2022-12-23T11:27:17.851Z,86.74
2022-12-23T11:30:05.546Z,87.77
2022-12-23T11:32:53.141Z,85.38
2022-12-23T11:35:40.838Z,86.73
2022-12-23T11:38:28.882Z,87.77
2022-12-23T11:41:16.436Z,88.60
2022-12-23T11:44:04.024Z,90.21
2022-12-23T11:46:51.630Z,89.89
2022-12-23T11:49:40.345Z,87.38
2022-12-23T11:52:30.777Z,89.07
2022-12-23T11:55:18.456Z,88.71
2022-12-23T11:58:06.005Z,91.24
2022-12-23T12:00:55.863Z,89.63
2022-12-23T12:03:43.936Z,90.94
2022-12-23T12:06:31.581Z,91.74
2022-12-23T12:09:19.133Z,95.30
2022-12-23T12:12:06.706Z,94.49
2022-12-23T12:14:54.279Z,94.42
2022-12-23T12:17:43.976Z,92.53
2022-12-23T12:20:31.528Z,92.25
2022-12-23T12:23:19.114Z,90.92
2022-12-23T12:26:06.683Z,92.54
2022-12-23T12:28:54.273Z,94.30
2022-12-23T12:31:41.876Z,92.33
2022-12-23T12:34:29.475Z,94.33
2022-12-23T12:37:17.022Z,95.47
2022-12-23T12:40:04.603Z,96.16
2022-12-23T12:42:52.177Z,97.48
2022-12-23T12:45:39.846Z,94.46
2022-12-23T12:48:27.466Z,96.77
2022-12-23T12:51:15.058Z,93.07
2022-12-23T12:54:05.570Z,92.40
2022-12-23T12:56:53.699Z,91.28
2022-12-23T12:59:41.303Z,92.26
2022-12-23T13:02:29.017Z,90.60
2022-12-23T13:05:16.596Z,90.94
2022-12-23T13:08:04.224Z,89.67
2022-12-23T13:10:51.807Z,90.10
2022-12-23T13:13:39.388Z,88.67
2022-12-23T13:16:28.975Z,91.23
2022-12-23T13:19:16.610Z,91.99
2022-12-23T13:22:04.319Z,90.05
2022-12-23T13:24:51.878Z,89.88
2022-12-23T13:27:42.232Z,88.20
2022-12-23T13:30:29.781Z,87.69
2022-12-23T13:33:17.413Z,87.02
2022-12-23T13:36:06.424Z,86.32
2022-12-23T13:38:54.338Z,84.39
2022-12-23T13:41:41.929Z,82.87
2022-12-23T13:44:29.522Z,83.36
2022-12-23T13:47:17.082Z,83.93
2022-12-23T13:50:04.645Z,82.91
2022-12-23T13:52:52.302Z,82.68
2022-12-23T13:55:39.859Z,82.68
2022-12-23T13:58:27.415Z,83.73
2022-12-23T14:01:15.024Z,84.22
2022-12-23T14:04:02.713Z,86.39
2022-12-23T14:06:50.965Z,83.54
2022-12-23T14:09:38.554Z,86.25
2022-12-23T14:12:26.134Z,84.47
2022-12-23T14:15:13.697Z,83.92
2022-12-23T14:18:04.571Z,84.63
2022-12-23T14:20:52.555Z,84.21
2022-12-23T14:23:40.133Z,85.31
2022-12-23T14:26:27.789Z,84.03
2022-12-23T14:29:15.357Z,85.09
2022-12-23T14:32:02.954Z,83.14
2022-12-23T14:34:50.552Z,84.98
2022-12-23T14:37:38.131Z,86.91
2022-12-23T14:40:25.699Z,88.36
2022-12-23T14:43:13.307Z,86.48
2022-12-23T14:46:01.015Z,85.95
2022-12-23T14:48:48.681Z,85.70
2022-12-23T14:51:36.310Z,87.65
2022-12-23T14:54:23.894Z,86.84
2022-12-23T14:57:11.480Z,86.86
2022-12-23T14:59:59.059Z,86.71
2022-12-23T15:02:46.664Z,87.18
2022-12-23T15:05:34.323Z,87.23
2022-12-23T15:08:21.959Z,85.08
2022-12-23T15:11:09.546Z,86.17
2022-12-23T15:13:57.137Z,87.89
2022-12-23T15:16:44.946Z,87.13
2022-12-23T15:19:32.911Z,86.90
2022-12-23T15:22:25.667Z,84.08
2022-12-23T15:25:19.592Z,85.49
2022-12-23T15:28:07.165Z,85.31
2022-12-23T15:30:54.788Z,85.78
2022-12-23T15:36:49.999Z,87.20
2022-12-23T15:39:37.607Z,86.50
2022-12-23T15:42:25.206Z,86.23
2022-12-23T15:45:12.797Z,86.17
2022-12-23T15:48:00.410Z,86.38
2022-12-23T15:50:47.970Z,85.33
2022-12-23T15:53:35.853Z,83.55
2022-12-23T15:56:23.427Z,86.18
2022-12-23T15:59:11.019Z,87.88
2022-12-23T16:01:58.654Z,87.54
2022-12-23T16:04:46.358Z,88.50
2022-12-23T16:07:33.951Z,87.50
2022-12-23T16:10:21.570Z,84.62
2022-12-23T16:13:09.157Z,84.54
2022-12-23T16:15:56.785Z,81.43
2022-12-23T16:18:47.646Z,82.32
2022-12-23T16:21:35.699Z,83.88
2022-12-23T16:24:25.305Z,87.23
2022-12-23T16:27:12.877Z,84.88
2022-12-23T16:30:00.503Z,86.15
2022-12-23T16:32:48.071Z,86.99
2022-12-23T16:35:35.890Z,88.76
2022-12-23T16:38:23.522Z,87.57
2022-12-23T16:41:11.132Z,84.79
2022-12-23T16:43:58.710Z,87.55
2022-12-23T16:46:46.282Z,84.43
2022-12-23T16:49:34.350Z,83.00
2022-12-23T16:52:21.975Z,87.00
2022-12-23T16:55:09.567Z,84.92
2022-12-23T16:57:57.147Z,84.38
2022-12-23T17:00:44.769Z,84.73
2022-12-23T17:03:32.403Z,84.67
2022-12-23T17:06:19.983Z,84.35
2022-12-23T17:09:07.584Z,85.74
2022-12-23T17:11:55.175Z,86.33
2022-12-23T17:14:42.778Z,86.26
2022-12-23T17:17:30.358Z,85.06
2022-12-23T17:20:17.920Z,84.69
2022-12-23T17:23:05.524Z,81.95
2022-12-23T17:25:53.683Z,84.45
2022-12-23T17:28:41.280Z,86.40
2022-12-23T17:31:29.362Z,86.62
2022-12-23T17:34:17.015Z,86.65
2022-12-23T17:37:07.229Z,86.31
2022-12-23T17:39:54.855Z,88.52
2022-12-23T17:42:42.471Z,91.93
2022-12-23T17:45:30.151Z,90.00
2022-12-23T17:48:22.167Z,89.00
2022-12-23T17:51:11.782Z,87.98
2022-12-23T17:53:59.393Z,88.55
2022-12-23T17:56:47.007Z,92.29
2022-12-23T17:59:34.625Z,99.32
2022-12-23T18:02:22.332Z,100.00
2022-12-23T18:05:10.201Z,100.00
2022-12-23T18:07:57.773Z,100.00
2022-12-23T18:10:48.406Z,100.00
2022-12-23T18:13:35.962Z,100.00
2022-12-23T18:16:23.645Z,100.00
2022-12-23T18:19:11.258Z,97.50
2022-12-23T18:21:58.828Z,96.94
2022-12-23T18:24:46.399Z,94.45
2022-12-23T18:27:33.997Z,94.53
2022-12-23T18:30:21.628Z,91.60
2022-12-23T18:33:09.203Z,92.74
2022-12-23T18:35:56.848Z,94.37
2022-12-23T18:38:44.509Z,91.54
2022-12-23T18:41:32.104Z,90.77
2022-12-23T18:44:19.674Z,91.02
2022-12-23T18:47:07.253Z,87.90
2022-12-23T18:49:54.865Z,86.28
2022-12-23T18:52:42.476Z,84.52
2022-12-23T18:55:32.096Z,85.25
2022-12-23T18:58:19.663Z,86.59
2022-12-23T19:01:07.261Z,87.98
2022-12-23T19:03:54.878Z,87.76
2022-12-23T19:06:42.466Z,88.26
2022-12-23T19:09:30.199Z,87.14
2022-12-23T19:12:17.764Z,89.03
2022-12-23T19:15:05.345Z,88.24
2022-12-23T19:17:52.901Z,92.74
2022-12-23T19:20:40.518Z,92.88
2022-12-23T19:23:28.117Z,92.24
2022-12-23T19:26:15.786Z,90.68
2022-12-23T19:29:05.368Z,88.04
2022-12-23T19:31:52.966Z,88.80
2022-12-23T19:34:40.500Z,85.23
2022-12-23T19:37:28.132Z,82.41
2022-12-23T19:40:15.708Z,82.68
2022-12-23T19:43:03.357Z,84.98
2022-12-23T19:45:50.983Z,83.93
2022-12-23T19:48:38.698Z,85.07
2022-12-23T19:51:28.271Z,87.01
2022-12-23T19:54:17.876Z,86.27
2022-12-23T19:57:05.468Z,84.58
2022-12-23T19:59:53.048Z,83.47
2022-12-23T20:02:40.638Z,81.71
2022-12-23T20:05:29.405Z,79.95
2022-12-23T20:08:16.972Z,77.44
2022-12-23T20:11:04.556Z,77.85
2022-12-23T20:13:52.136Z,76.88
2022-12-23T20:16:40.413Z,77.46
2022-12-23T20:19:27.973Z,76.50
2022-12-23T20:22:15.559Z,75.49
2022-12-23T20:25:03.103Z,74.78
2022-12-23T20:27:50.678Z,77.29
2022-12-23T20:30:38.290Z,75.51
2022-12-23T20:33:25.842Z,79.08
2022-12-23T20:36:13.507Z,78.27
2022-12-23T20:39:01.077Z,76.99
2022-12-23T20:41:48.697Z,76.56
2022-12-23T20:44:37.435Z,78.82
2022-12-23T20:47:25.370Z,77.27
2022-12-23T20:50:12.912Z,78.40
2022-12-23T20:53:00.470Z,75.89
2022-12-23T20:55:48.043Z,79.44
2022-12-23T20:58:35.615Z,78.50
2022-12-23T21:01:23.217Z,78.14
2022-12-23T21:04:10.775Z,76.49
2022-12-23T21:06:58.338Z,75.97
2022-12-23T21:09:45.871Z,75.86
2022-12-23T21:12:34.111Z,74.76
2022-12-23T21:15:21.663Z,74.39
2022-12-23T21:18:09.241Z,75.26
2022-12-23T21:20:56.853Z,73.68
2022-12-23T21:23:44.464Z,72.17
2022-12-23T21:26:32.029Z,70.13
2022-12-23T21:29:19.599Z,70.73
2022-12-23T21:32:07.147Z,73.53
2022-12-23T21:34:54.768Z,74.00
2022-12-23T21:37:42.334Z,77.90
2022-12-23T21:40:29.906Z,75.35
2022-12-23T21:43:17.493Z,74.94
2022-12-23T21:46:05.065Z,74.36
2022-12-23T21:48:52.609Z,72.05
2022-12-23T21:51:41.564Z,73.07
2022-12-23T21:54:29.578Z,73.54
2022-12-23T21:57:17.180Z,74.03
2022-12-23T22:00:06.759Z,76.02
2022-12-23T22:02:54.349Z,75.91
2022-12-23T22:05:41.926Z,75.70
2022-12-23T22:08:29.472Z,76.82
2022-12-23T22:11:17.057Z,75.33
2022-12-23T22:14:04.616Z,75.34
2022-12-23T22:16:52.290Z,75.39
2022-12-23T22:19:39.886Z,74.13
2022-12-23T22:22:29.453Z,73.43
2022-12-23T22:25:17.026Z,73.76
2022-12-23T22:28:04.619Z,74.91
2022-12-23T22:30:52.179Z,73.34
2022-12-23T22:33:39.763Z,75.28
2022-12-23T22:36:27.398Z,78.31
2022-12-23T22:39:19.998Z,77.95
2022-12-23T22:42:08.853Z,77.35
2022-12-23T22:44:56.460Z,76.20
2022-12-23T22:47:44.060Z,74.83
2022-12-23T22:50:31.825Z,74.93
2022-12-23T22:53:24.917Z,74.48
2022-12-23T22:56:17.093Z,79.33
2022-12-23T22:59:04.631Z,78.22
2022-12-23T23:01:52.238Z,79.99
2022-12-23T23:04:39.813Z,79.49
2022-12-23T23:07:27.381Z,79.53
2022-12-23T23:10:14.965Z,78.67
2022-12-23T23:13:02.542Z,81.29
2022-12-23T23:15:50.094Z,79.04
2022-12-23T23:18:37.688Z,78.45
2022-12-23T23:21:25.258Z,76.29
2022-12-23T23:24:12.833Z,76.77
2022-12-23T23:27:00.395Z,77.87
2022-12-23T23:29:47.963Z,78.66
2022-12-23T23:32:35.588Z,79.78
2022-12-23T23:35:23.254Z,81.06
2022-12-23T23:38:10.907Z,86.88
2022-12-23T23:40:58.483Z,89.12
2022-12-23T23:43:46.060Z,90.29
2022-12-23T23:46:33.739Z,91.44
2022-12-23T23:49:21.405Z,90.15
2022-12-23T23:52:09.073Z,89.86
2022-12-23T23:54:56.656Z,92.15
2022-12-23T23:57:44.258Z,93.63
